Time;durP1;ratioP1;P1;durP2;ratioP2;P2;SDS_P1;SDS_P2;PMS_P1;PMS_P2;Temp;Humidity;BMP_temperature;BMP_pressure;BME280_temperature;BME280_humidity;BME280_pressure;Samples;Min_cycle;Max_cycle;Signal;HPM_P1;HPM_P2
2021/12/18 00:01:08;;;;;;;36.37;13.37;;;;;;;4.71;100.00;100598.50;5082517;28;20677;-78
2021/12/18 00:03:36;;;;;;;44.80;21.40;;;;;;;4.57;100.00;100592.72;5086075;28;20194;-77
2021/12/18 00:06:03;;;;;;;33.87;17.03;;;;;;;4.67;100.00;100594.94;5091871;28;20202;-79
2021/12/18 00:08:30;;;;;;;23.13;12.17;;;;;;;4.58;100.00;100591.03;5091656;28;20278;-79
2021/12/18 00:10:57;;;;;;;25.37;12.33;;;;;;;4.37;100.00;100572.94;5091352;28;20197;-77
2021/12/18 00:13:24;;;;;;;26.97;12.67;;;;;;;4.44;100.00;100593.84;5092551;28;20577;-78
2021/12/18 00:15:52;;;;;;;27.50;14.93;;;;;;;4.36;100.00;100582.31;5092351;28;20594;-78
2021/12/18 00:18:19;;;;;;;18.87;10.50;;;;;;;4.27;100.00;100576.75;5080406;28;20218;-78
2021/12/18 00:20:48;;;;;;;19.20;10.33;;;;;;;4.23;100.00;100579.97;5072422;28;20215;-77
2021/12/18 00:23:15;;;;;;;26.87;12.07;;;;;;;4.31;100.00;100581.25;5079931;28;20190;-78
2021/12/18 00:25:43;;;;;;;21.07;11.90;;;;;;;4.23;100.00;100585.13;5090230;28;20194;-78
2021/12/18 00:28:11;;;;;;;27.23;12.50;;;;;;;4.14;100.00;100571.81;5090953;28;20190;-77
2021/12/18 00:30:38;;;;;;;16.20;10.03;;;;;;;4.12;100.00;100583.72;5092302;28;20193;-79
2021/12/18 00:33:07;;;;;;;28.67;14.90;;;;;;;3.98;100.00;100547.13;5092134;28;20239;-78
2021/12/18 00:35:34;;;;;;;17.63;10.40;;;;;;;4.10;100.00;100548.53;5091750;28;20201;-78
2021/12/18 00:38:03;;;;;;;18.57;10.20;;;;;;;4.09;100.00;100585.25;5090549;28;20222;-77
2021/12/18 00:40:30;;;;;;;24.37;13.20;;;;;;;4.07;100.00;100582.59;5075868;28;20191;-77
2021/12/18 00:43:00;;;;;;;11.73;7.10;;;;;;;3.94;100.00;100546.91;5072261;28;20289;-77
2021/12/18 00:45:29;;;;;;;24.60;11.03;;;;;;;3.89;100.00;100558.63;5083180;28;20194;-78
2021/12/18 00:47:57;;;;;;;18.20;9.77;;;;;;;4.08;100.00;100588.63;5075949;28;20201;-78
2021/12/18 00:50:25;;;;;;;15.50;9.67;;;;;;;3.60;100.00;100538.38;5091307;28;20688;-78
2021/12/18 00:52:52;;;;;;;17.77;10.40;;;;;;;3.83;100.00;100595.09;5081876;28;20203;-77
2021/12/18 00:55:21;;;;;;;21.57;11.27;;;;;;;3.95;100.00;100582.03;5076455;28;20201;-77
2021/12/18 00:57:49;;;;;;;22.30;11.03;;;;;;;3.85;100.00;100569.56;5077022;28;20241;-79
2021/12/18 01:00:21;;;;;;;19.63;11.60;;;;;;;3.89;100.00;100591.97;5086622;28;20190;-78
2021/12/18 01:02:50;;;;;;;25.10;12.03;;;;;;;3.80;100.00;100599.22;5091392;28;20194;-78
2021/12/18 01:05:17;;;;;;;16.37;9.40;;;;;;;3.80;100.00;100591.50;5090215;28;20240;-78
2021/12/18 01:07:44;;;;;;;13.60;6.97;;;;;;;3.81;100.00;100594.16;5075965;28;20207;-79
2021/12/18 01:10:31;;;;;;;17.73;10.27;;;;;;;3.78;100.00;100600.84;5083686;28;20706;-78
2021/12/18 01:13:01;;;;;;;36.00;15.90;;;;;;;3.63;100.00;100572.75;5071607;28;20259;-78
2021/12/18 01:15:31;;;;;;;28.10;14.47;;;;;;;3.16;100.00;100531.88;5071512;28;20273;-77
2021/12/18 01:23:27;;;;;;;27.40;12.43;;;;;;;3.43;100.00;100589.66;5071764;28;20244;-77
2021/12/18 01:25:55;;;;;;;18.70;10.87;;;;;;;3.39;100.00;100586.84;5086091;28;20594;-78
2021/12/18 01:28:25;;;;;;;24.10;11.80;;;;;;;3.57;100.00;100582.66;5078414;28;20187;-77
2021/12/18 01:30:52;;;;;;;43.83;17.53;;;;;;;3.22;100.00;100575.72;5071523;28;20199;-77
2021/12/18 01:33:19;;;;;;;31.07;17.60;;;;;;;2.97;100.00;100539.41;5071537;28;20195;-78
2021/12/18 01:35:46;;;;;;;36.20;19.50;;;;;;;3.33;100.00;100582.31;5071261;28;20227;-77
2021/12/18 01:38:13;;;;;;;182.63;78.10;;;;;;;3.39;100.00;100591.97;5072137;28;20221;-78
2021/12/18 01:40:41;;;;;;;64.07;28.03;;;;;;;3.21;100.00;100589.34;5073278;28;20198;-78
2021/12/18 01:46:10;;;;;;;63.13;27.30;;;;;;;3.30;100.00;100584.72;5072763;28;20206;-78
2021/12/18 01:51:25;;;;;;;26.40;14.73;;;;;;;3.15;100.00;100576.22;5089386;28;20193;-78
2021/12/18 01:53:54;;;;;;;18.60;10.33;;;;;;;3.25;100.00;100591.25;5091325;28;20198;-78
2021/12/18 01:56:22;;;;;;;17.53;9.53;;;;;;;3.30;100.00;100592.41;5079203;28;20202;-78
2021/12/18 01:58:49;;;;;;;18.60;11.20;;;;;;;3.30;100.00;100587.28;5082888;28;20222;-79
2021/12/18 02:01:19;;;;;;;18.03;11.10;;;;;;;3.18;100.00;100591.75;5076465;28;20191;-78
2021/12/18 02:03:47;;;;;;;19.00;10.07;;;;;;;3.35;100.00;100590.94;5074673;28;20213;-78
2021/12/18 02:06:15;;;;;;;17.37;10.13;;;;;;;3.23;100.00;100599.69;5074449;28;20194;-78
2021/12/18 02:08:44;;;;;;;17.17;9.70;;;;;;;3.41;100.00;100601.53;5092670;28;20198;-77
2021/12/18 02:11:22;;;;;;;22.70;12.40;;;;;;;3.48;100.00;100610.41;5085435;28;20699;-79
2021/12/18 02:22:20;;;;;;;55.43;29.93;;;;;;;3.50;100.00;100604.53;5074262;28;20206;-77
2021/12/18 02:24:47;;;;;;;25.67;16.00;;;;;;;3.45;100.00;100602.56;5074502;28;20203;-78
2021/12/18 02:27:15;;;;;;;20.93;13.07;;;;;;;3.47;100.00;100608.63;5074398;28;20222;-78
2021/12/18 02:29:42;;;;;;;26.57;16.87;;;;;;;3.43;100.00;100605.03;5093116;28;20186;-77
2021/12/18 02:32:12;;;;;;;23.07;15.23;;;;;;;3.43;100.00;100611.84;5079894;28;20248;-77
2021/12/18 02:34:41;;;;;;;25.43;12.97;;;;;;;3.38;100.00;100611.63;5088700;28;20190;-78
2021/12/18 02:37:11;;;;;;;33.20;18.77;;;;;;;2.99;100.00;100564.31;5092130;28;20214;-76
2021/12/18 02:40:46;;;;;;;20.47;12.10;;;;;;;3.29;100.00;100613.69;5074070;28;20218;-78
2021/12/18 02:42:42;;;;;;;20.77;12.40;;;;;;;3.17;100.00;100594.25;5075042;28;20206;-79
2021/12/18 02:45:12;;;;;;;21.07;11.40;;;;;;;3.31;100.00;100609.53;5086687;28;20202;-77
2021/12/18 02:47:38;;;;;;;17.07;10.43;;;;;;;3.11;100.00;100609.28;5093271;28;20202;-78
2021/12/18 02:50:06;;;;;;;19.73;10.60;;;;;;;3.06;100.00;100609.06;5094053;28;20619;-78
2021/12/18 02:52:33;;;;;;;20.63;11.37;;;;;;;3.19;100.00;100611.44;5091761;28;20186;-78
2021/12/18 02:55:01;;;;;;;16.93;11.40;;;;;;;3.20;100.00;100600.41;5089719;28;20198;-77
2021/12/18 02:57:28;;;;;;;17.70;9.63;;;;;;;3.09;100.00;100578.47;5072898;28;20214;-77
2021/12/18 02:59:57;;;;;;;20.97;11.43;;;;;;;3.26;100.00;100610.97;5080617;28;20600;-78
2021/12/18 03:02:26;;;;;;;26.43;12.80;;;;;;;3.13;100.00;100603.47;5092186;28;20197;-78
2021/12/18 03:04:57;;;;;;;20.40;11.80;;;;;;;3.13;100.00;100618.81;5093830;28;20205;-78
2021/12/18 03:07:26;;;;;;;17.87;9.87;;;;;;;3.10;100.00;100618.66;5073731;28;20585;-77
2021/12/18 03:23:48;;;;;;;31.13;14.23;;;;;;;2.78;100.00;100644.22;5091427;28;20202;-77
2021/12/18 03:26:15;;;;;;;33.43;17.87;;;;;;;2.84;100.00;100639.44;5091229;28;20197;-77
2021/12/18 03:28:43;;;;;;;58.23;23.63;;;;;;;2.95;100.00;100641.78;5092169;28;20701;-78
2021/12/18 03:31:10;;;;;;;33.33;17.47;;;;;;;2.81;100.00;100635.03;5084335;28;20223;-78
2021/12/18 03:33:37;;;;;;;24.80;13.00;;;;;;;2.71;100.00;100601.16;5074004;28;20191;-77
2021/12/18 03:36:07;;;;;;;26.17;13.57;;;;;;;2.79;100.00;100638.28;5072981;28;20223;-77
2021/12/18 03:38:34;;;;;;;19.07;12.10;;;;;;;2.78;100.00;100623.75;5072687;28;20247;-78
2021/12/18 03:41:01;;;;;;;19.57;10.80;;;;;;;2.92;100.00;100650.97;5073210;28;20622;-78
2021/12/18 03:43:28;;;;;;;21.97;11.00;;;;;;;2.89;100.00;100653.38;5073736;28;20195;-79
2021/12/18 03:45:56;;;;;;;15.43;9.73;;;;;;;2.70;100.00;100625.88;5091201;28;20189;-78
2021/12/18 03:48:23;;;;;;;18.47;11.27;;;;;;;2.92;100.00;100653.53;5090410;28;20197;-78
2021/12/18 03:50:52;;;;;;;20.90;9.70;;;;;;;2.85;100.00;100626.69;5085644;28;20577;-78
2021/12/18 03:53:18;;;;;;;19.47;10.50;;;;;;;2.95;100.00;100663.94;5093152;28;20198;-78
2021/12/18 03:55:45;;;;;;;18.57;10.27;;;;;;;2.93;100.00;100670.63;5088200;28;20190;-78
2021/12/18 03:58:12;;;;;;;17.63;9.80;;;;;;;2.87;100.00;100678.88;5072837;28;20222;-78
2021/12/18 04:00:39;;;;;;;17.90;9.53;;;;;;;2.60;100.00;100630.41;5072047;28;20194;-78
2021/12/18 04:03:07;;;;;;;14.50;9.53;;;;;;;2.99;100.00;100697.50;5073385;28;20669;-78
2021/12/18 04:05:34;;;;;;;18.07;10.27;;;;;;;3.01;100.00;100689.88;5072232;28;20700;-79
2021/12/18 04:08:08;;;;;;;28.20;13.77;;;;;;;3.14;100.00;100705.09;5072634;28;20689;-77
2021/12/18 04:10:37;;;;;;;29.87;12.53;;;;;;;3.15;100.00;100709.44;5073480;28;20194;-77
2021/12/18 04:13:04;;;;;;;24.53;11.47;;;;;;;3.17;100.00;100707.88;5091332;28;20230;-78
2021/12/18 04:15:31;;;;;;;17.60;11.33;;;;;;;3.15;100.00;100709.44;5072662;28;20590;-77
2021/12/18 04:17:58;;;;;;;21.50;9.57;;;;;;;3.10;100.00;100708.31;5072880;28;20199;-77
2021/12/18 04:20:26;;;;;;;19.33;10.37;;;;;;;3.15;100.00;100713.69;5072179;28;20215;-78
2021/12/18 04:22:53;;;;;;;12.73;9.03;;;;;;;2.94;100.00;100723.63;5072911;28;20191;-77
2021/12/18 04:25:20;;;;;;;24.07;11.90;;;;;;;2.90;100.00;100734.50;5088493;28;20190;-78
2021/12/18 04:27:47;;;;;;;22.00;11.90;;;;;;;2.92;100.00;100738.06;5091252;28;20182;-79
2021/12/18 04:30:15;;;;;;;30.90;13.90;;;;;;;2.96;100.00;100730.59;5081126;28;20203;-78
2021/12/18 04:32:42;;;;;;;18.37;12.40;;;;;;;2.96;100.00;100737.44;5088989;28;20201;-78
2021/12/18 04:35:09;;;;;;;22.30;12.13;;;;;;;2.99;100.00;100717.09;5092058;28;20205;-78
2021/12/18 04:37:37;;;;;;;19.73;11.43;;;;;;;3.11;100.00;100742.47;5089182;28;20271;-77
2021/12/18 04:40:06;;;;;;;25.13;12.67;;;;;;;2.86;100.00;100737.69;5091475;28;20282;-78
2021/12/18 04:42:33;;;;;;;24.73;12.87;;;;;;;3.01;100.00;100746.22;5091297;28;20202;-77
2021/12/18 04:45:00;;;;;;;21.50;12.50;;;;;;;2.86;100.00;100745.38;5088881;28;20197;-76
2021/12/18 04:47:27;;;;;;;21.30;12.13;;;;;;;2.87;100.00;100747.13;5079412;28;20195;-78
2021/12/18 04:49:55;;;;;;;23.03;11.63;;;;;;;2.69;100.00;100711.16;5091833;28;20190;-79
2021/12/18 04:52:22;;;;;;;40.43;17.03;;;;;;;2.90;100.00;100743.06;5083157;28;20198;-77
2021/12/18 04:54:51;;;;;;;37.57;17.67;;;;;;;2.79;100.00;100748.38;5079121;28;20191;-78
2021/12/18 04:57:18;;;;;;;108.53;45.43;;;;;;;2.72;100.00;100746.28;5083865;28;20225;-78
2021/12/18 04:59:45;;;;;;;68.97;28.10;;;;;;;2.57;100.00;100760.78;5090956;28;20324;-78
2021/12/18 05:02:15;;;;;;;45.97;20.83;;;;;;;2.55;100.00;100764.91;5091800;28;20267;-78
2021/12/18 05:04:42;;;;;;;49.93;22.60;;;;;;;2.57;100.00;100764.19;5077664;28;20202;-78
2021/12/18 05:07:10;;;;;;;44.87;20.47;;;;;;;2.44;100.00;100765.19;5084124;28;20244;-77
2021/12/18 05:09:37;;;;;;;46.90;21.67;;;;;;;2.42;100.00;100765.91;5093754;28;20198;-78
2021/12/18 05:12:06;;;;;;;54.77;26.47;;;;;;;2.33;100.00;100773.91;5078552;28;20206;-77
2021/12/18 05:14:33;;;;;;;112.27;54.07;;;;;;;2.41;100.00;100775.25;5072824;28;20202;-77
2021/12/18 05:17:00;;;;;;;49.63;21.43;;;;;;;2.35;100.00;100774.91;5088544;28;20202;-78
2021/12/18 05:19:27;;;;;;;30.13;14.57;;;;;;;2.25;100.00;100789.59;5091362;28;20620;-79
2021/12/18 05:21:53;;;;;;;29.33;13.03;;;;;;;2.24;100.00;100791.28;5091207;28;20190;-79
2021/12/18 05:24:20;;;;;;;23.67;16.47;;;;;;;2.32;100.00;100797.72;5091165;28;20256;-77
2021/12/18 05:26:47;;;;;;;28.83;14.63;;;;;;;2.50;100.00;100800.47;5081659;28;20622;-78
2021/12/18 05:29:15;;;;;;;32.67;16.30;;;;;;;2.58;100.00;100816.28;5085224;28;20198;-77
2021/12/18 05:31:42;;;;;;;31.70;18.77;;;;;;;2.64;100.00;100819.22;5080799;28;20617;-79
2021/12/18 05:34:09;;;;;;;44.23;21.60;;;;;;;2.69;100.00;100823.78;5082563;28;20222;-79
2021/12/18 05:36:50;;;;;;;36.30;18.03;;;;;;;2.75;100.00;100834.38;5094983;28;20221;-78
2021/12/18 05:39:17;;;;;;;41.23;17.97;;;;;;;2.83;100.00;100828.03;5093598;28;20225;-79
2021/12/18 05:41:44;;;;;;;36.30;18.27;;;;;;;2.87;100.00;100829.97;5094722;28;20643;-79
2021/12/18 05:44:11;;;;;;;41.23;18.93;;;;;;;2.94;100.00;100831.19;5082889;28;20217;-77
2021/12/18 05:46:39;;;;;;;198.27;75.77;;;;;;;2.70;100.00;100791.41;5084082;28;20198;-78
2021/12/18 05:49:06;;;;;;;108.30;39.37;;;;;;;3.02;100.00;100837.66;5095525;28;20202;-77
2021/12/18 05:51:33;;;;;;;62.73;21.53;;;;;;;3.05;100.00;100835.25;5095223;28;20198;-77
2021/12/18 05:54:00;;;;;;;99.93;35.70;;;;;;;2.99;100.00;100845.16;5088321;28;20221;-79
2021/12/18 05:56:27;;;;;;;85.30;32.90;;;;;;;2.66;100.00;100805.69;5078521;28;20619;-77
2021/12/18 05:58:54;;;;;;;76.50;29.47;;;;;;;3.02;100.00;100844.44;5074352;28;20214;-78
2021/12/18 06:01:21;;;;;;;53.47;22.57;;;;;;;3.18;100.00;100845.38;5074402;28;20198;-78
2021/12/18 06:03:49;;;;;;;65.77;24.60;;;;;;;3.20;100.00;100850.63;5075856;28;20221;-78
2021/12/18 06:06:16;;;;;;;58.20;23.10;;;;;;;2.44;100.00;100731.91;5087533;28;20664;-78
2021/12/18 06:08:43;;;;;;;54.07;19.43;;;;;;;3.31;100.00;100857.22;5094570;28;20195;-78
2021/12/18 06:11:13;;;;;;;32.63;15.00;;;;;;;3.40;100.00;100868.88;5094831;28;20222;-79
2021/12/18 06:13:40;;;;;;;29.87;13.57;;;;;;;3.47;100.00;100872.66;5090256;28;20199;-78
2021/12/18 06:16:08;;;;;;;30.30;14.03;;;;;;;3.50;100.00;100863.44;5088404;28;20587;-77
2021/12/18 06:18:35;;;;;;;33.70;14.97;;;;;;;3.49;100.00;100860.81;5074601;28;20202;-78
2021/12/18 06:21:04;;;;;;;32.30;14.63;;;;;;;3.73;100.00;100897.16;5074271;28;20213;-77
2021/12/18 06:23:31;;;;;;;22.70;12.63;;;;;;;3.72;100.00;100897.97;5074479;28;20199;-78
2021/12/18 06:25:58;;;;;;;32.60;15.40;;;;;;;3.80;100.00;100906.97;5074566;28;20214;-77
2021/12/18 06:28:26;;;;;;;28.17;11.83;;;;;;;3.76;100.00;100903.34;5073548;28;20198;-77
2021/12/18 06:30:53;;;;;;;18.63;11.30;;;;;;;3.45;100.00;100844.38;5074254;28;20209;-75
2021/12/18 06:33:20;;;;;;;15.90;9.80;;;;;;;3.81;100.00;100890.78;5075595;28;20198;-77
2021/12/18 06:35:47;;;;;;;20.47;11.57;;;;;;;3.74;100.00;100892.13;5074009;28;20219;-76
2021/12/18 06:38:15;;;;;;;20.93;10.83;;;;;;;3.74;100.00;100904.06;5089191;28;20205;-75
2021/12/18 06:40:42;;;;;;;20.77;11.70;;;;;;;3.63;100.00;100910.28;5090874;28;20656;-76
2021/12/18 06:43:09;;;;;;;20.43;11.23;;;;;;;3.65;100.00;100904.44;5074294;28;20194;-76
2021/12/18 06:45:36;;;;;;;21.20;11.77;;;;;;;3.72;100.00;100910.78;5087007;28;20191;-76
2021/12/18 06:48:03;;;;;;;22.30;11.17;;;;;;;3.72;100.00;100921.03;5075004;28;20202;-74
2021/12/18 06:50:30;;;;;;;21.80;12.03;;;;;;;3.74;100.00;100922.03;5083354;28;20194;-73
2021/12/18 06:52:57;;;;;;;22.87;12.77;;;;;;;3.87;100.00;100932.16;5090861;28;20203;-75
2021/12/18 06:55:25;;;;;;;24.90;14.50;;;;;;;3.68;100.00;100912.28;5074993;28;20191;-75
2021/12/18 06:57:52;;;;;;;32.57;16.63;;;;;;;3.88;100.00;100949.31;5092561;28;20190;-75
2021/12/18 07:00:21;;;;;;;34.60;15.83;;;;;;;3.90;100.00;100943.47;5073817;28;20223;-76
2021/12/18 07:02:49;;;;;;;29.90;15.33;;;;;;;3.98;100.00;100947.34;5074552;28;20191;-74
2021/12/18 07:05:16;;;;;;;25.57;13.80;;;;;;;4.10;100.00;100952.28;5073964;28;20201;-77
2021/12/18 07:07:43;;;;;;;32.60;16.07;;;;;;;4.05;100.00;100948.56;5089735;28;20202;-76
2021/12/18 07:10:12;;;;;;;41.33;17.23;;;;;;;4.17;100.00;100946.66;5088269;28;20244;-74
2021/12/18 07:12:40;;;;;;;37.30;16.13;;;;;;;3.88;100.00;100941.63;5082641;28;20575;-78
2021/12/18 07:15:09;;;;;;;79.03;27.70;;;;;;;4.10;100.00;100947.13;5093569;28;20595;-76
2021/12/18 07:17:36;;;;;;;65.63;22.43;;;;;;;4.17;100.00;100938.97;5078636;28;20191;-75
2021/12/18 07:20:05;;;;;;;75.23;25.13;;;;;;;4.19;100.00;100952.75;5073644;28;20234;-77
2021/12/18 07:22:32;;;;;;;83.13;29.40;;;;;;;4.32;100.00;100960.31;5073688;28;20191;-74
2021/12/18 07:24:59;;;;;;;43.97;19.93;;;;;;;4.43;100.00;100963.44;5073526;28;20210;-75
2021/12/18 07:27:26;;;;;;;39.20;18.30;;;;;;;4.63;100.00;100972.22;5073443;28;20202;-77
2021/12/18 07:29:54;;;;;;;31.07;15.73;;;;;;;4.76;100.00;100987.47;5076628;28;20195;-78
2021/12/18 07:32:21;;;;;;;24.43;13.63;;;;;;;4.78;100.00;100993.59;5073127;28;20199;-77
2021/12/18 07:34:48;;;;;;;25.17;12.50;;;;;;;4.66;100.00;100963.00;5073347;28;20195;-78
2021/12/18 07:37:14;;;;;;;22.30;12.20;;;;;;;4.70;100.00;100989.72;5073036;28;20230;-76
2021/12/18 07:39:41;;;;;;;24.57;12.83;;;;;;;4.83;100.00;101007.53;5083480;28;20723;-76
2021/12/18 07:42:08;;;;;;;21.40;13.43;;;;;;;4.93;100.00;101014.91;5093575;28;20186;-74
2021/12/18 07:44:35;;;;;;;26.23;13.90;;;;;;;5.09;100.00;101017.50;5093412;28;20198;-73
2021/12/18 07:47:04;;;;;;;21.87;12.83;;;;;;;5.19;100.00;101023.97;5092084;28;20193;-74
2021/12/18 07:49:31;;;;;;;34.50;12.50;;;;;;;5.09;100.00;101026.88;5084858;28;20201;-76
2021/12/18 07:52:02;;;;;;;24.77;12.90;;;;;;;5.23;100.00;101037.06;5092492;28;20197;-77
2021/12/18 07:54:28;;;;;;;24.33;13.23;;;;;;;5.42;100.00;101041.47;5085835;28;20194;-77
2021/12/18 07:56:55;;;;;;;22.33;12.13;;;;;;;4.53;100.00;101047.00;5092954;28;20221;-75
2021/12/18 07:59:22;;;;;;;21.10;12.53;;;;;;;4.85;100.00;101041.91;5090034;28;20186;-76
2021/12/18 08:01:49;;;;;;;27.37;14.40;;;;;;;4.75;100.00;101039.63;5076567;28;20199;-75
2021/12/18 08:04:17;;;;;;;28.27;15.57;;;;;;;4.99;100.00;101041.81;5076454;28;20199;-77
2021/12/18 08:06:44;;;;;;;38.27;19.57;;;;;;;4.80;100.00;101045.91;5072446;28;20198;-74
2021/12/18 08:09:11;;;;;;;34.13;16.07;;;;;;;4.68;100.00;101045.25;5072607;28;20194;-74
2021/12/18 08:11:38;;;;;;;27.00;15.37;;;;;;;4.33;100.00;101027.94;5072550;28;20190;-74
2021/12/18 08:14:04;;;;;;;36.40;17.47;;;;;;;4.34;100.00;101053.72;5072678;28;20235;-77
2021/12/18 08:16:31;;;;;;;35.80;17.67;;;;;;;4.70;100.00;101031.72;5072574;28;20213;-76
2021/12/18 08:18:58;;;;;;;35.90;18.57;;;;;;;4.93;100.00;101035.47;5072465;28;20199;-74
2021/12/18 08:21:26;;;;;;;35.30;19.10;;;;;;;5.05;100.00;101033.56;5072246;28;20226;-75
2021/12/18 08:23:53;;;;;;;31.83;17.73;;;;;;;5.28;100.00;101061.31;5072040;28;20645;-76
2021/12/18 08:26:19;;;;;;;38.30;20.37;;;;;;;5.58;100.00;101068.84;5072273;28;20195;-73
2021/12/18 08:28:46;;;;;;;43.87;16.77;;;;;;;5.74;100.00;101056.81;5071414;28;20198;-75
2021/12/18 08:31:13;;;;;;;28.33;13.73;;;;;;;5.98;100.00;101041.75;5072105;28;20194;-75
2021/12/18 08:33:40;;;;;;;37.93;14.87;;;;;;;5.68;100.00;101081.34;5071917;28;20670;-73
2021/12/18 08:36:07;;;;;;;20.90;11.63;;;;;;;5.13;100.00;101045.13;5072197;28;20239;-76
2021/12/18 08:38:35;;;;;;;32.30;13.70;;;;;;;5.39;100.00;101054.16;5071868;28;20711;-76
2021/12/18 08:41:02;;;;;;;40.97;18.83;;;;;;;5.23;100.00;101078.22;5071913;28;20609;-76
2021/12/18 08:43:29;;;;;;;34.23;15.30;;;;;;;5.05;100.00;101082.38;5071752;28;20187;-76
2021/12/18 08:45:56;;;;;;;34.63;16.00;;;;;;;4.79;100.00;101085.25;5072262;28;20202;-73
2021/12/18 08:48:22;;;;;;;29.23;12.53;;;;;;;4.54;100.00;101084.69;5072106;28;20199;-77
2021/12/18 08:50:50;;;;;;;21.90;11.37;;;;;;;4.39;100.00;101088.19;5072035;28;20244;-76
2021/12/18 08:53:17;;;;;;;23.20;11.57;;;;;;;4.29;100.00;101078.22;5072610;28;20203;-77
2021/12/18 08:55:45;;;;;;;30.77;12.70;;;;;;;4.50;100.00;101087.09;5072175;28;20206;-76
2021/12/18 08:58:12;;;;;;;22.47;11.53;;;;;;;4.38;100.00;101091.59;5070989;28;20203;-75
2021/12/18 09:00:40;;;;;;;20.50;9.77;;;;;;;4.31;100.00;101081.78;5071804;28;20588;-74
2021/12/18 09:03:07;;;;;;;23.80;11.77;;;;;;;4.23;100.00;101075.31;5071663;28;20294;-76
2021/12/18 09:05:34;;;;;;;25.50;14.80;;;;;;;4.45;100.00;101077.41;5071959;28;20253;-77
2021/12/18 09:08:01;;;;;;;24.77;12.07;;;;;;;4.30;100.00;101064.59;5071853;28;20198;-77
2021/12/18 09:10:28;;;;;;;25.43;12.40;;;;;;;4.65;100.00;101083.59;5071347;28;20582;-77
2021/12/18 09:12:56;;;;;;;26.37;13.23;;;;;;;4.45;100.00;101091.13;5072005;28;20267;-78
2021/12/18 09:15:24;;;;;;;44.70;20.43;;;;;;;4.57;100.00;101095.13;5072616;28;20191;-79
2021/12/18 09:17:51;;;;;;;38.83;17.80;;;;;;;3.98;100.00;101047.41;5071923;28;20198;-77
2021/12/18 09:20:18;;;;;;;25.50;12.87;;;;;;;4.14;100.00;101085.06;5071436;28;20766;-77
2021/12/18 09:22:45;;;;;;;35.93;18.70;;;;;;;4.13;100.00;101079.84;5071801;28;20198;-76
2021/12/18 09:25:12;;;;;;;17.80;10.13;;;;;;;4.17;100.00;101028.78;5071743;28;20206;-75
2021/12/18 09:27:39;;;;;;;26.50;12.53;;;;;;;4.69;100.00;101075.28;5071750;28;20194;-76
2021/12/18 09:30:11;;;;;;;33.27;14.57;;;;;;;4.99;100.00;101089.78;5070697;28;20202;-76
2021/12/18 09:32:38;;;;;;;53.43;22.40;;;;;;;4.96;100.00;101092.16;5071739;28;20274;-76
2021/12/18 09:35:06;;;;;;;22.27;9.73;;;;;;;4.79;100.00;101092.94;5072011;28;20198;-75
2021/12/18 09:37:33;;;;;;;44.47;18.70;;;;;;;4.77;100.00;101094.56;5071429;28;20227;-75
2021/12/18 09:40:00;;;;;;;43.70;16.77;;;;;;;4.77;100.00;101092.00;5071674;28;20230;-76
2021/12/18 09:42:27;;;;;;;37.10;15.07;;;;;;;4.63;100.00;101098.06;5071310;28;20195;-76
2021/12/18 09:44:54;;;;;;;41.07;17.27;;;;;;;4.56;100.00;101085.69;5071384;28;20205;-77
2021/12/18 09:47:22;;;;;;;75.97;28.33;;;;;;;4.63;100.00;101087.78;5071685;28;20707;-77
2021/12/18 09:49:49;;;;;;;33.20;16.13;;;;;;;4.76;100.00;101085.06;5071447;28;20230;-76
2021/12/18 09:52:17;;;;;;;32.17;14.60;;;;;;;5.01;100.00;101083.03;5071577;28;20627;-75
2021/12/18 09:54:44;;;;;;;45.63;16.80;;;;;;;4.77;100.00;101051.78;5071986;28;20199;-75
2021/12/18 09:57:11;;;;;;;40.53;17.00;;;;;;;5.05;100.00;101094.34;5072029;28;20202;-75
2021/12/18 09:59:38;;;;;;;45.43;18.50;;;;;;;4.83;100.00;101090.63;5070533;28;20195;-77
2021/12/18 10:02:06;;;;;;;37.17;18.83;;;;;;;4.94;100.00;101099.81;5071345;28;20321;-79
2021/12/18 10:04:37;;;;;;;30.30;15.10;;;;;;;4.58;100.00;101056.72;5071006;28;20661;-76
2021/12/18 10:07:18;;;;;;;68.53;29.57;;;;;;;4.63;100.00;101059.53;5071330;28;20199;-77
2021/12/18 10:09:45;;;;;;;24.57;12.43;;;;;;;4.50;100.00;101069.13;5071348;28;20328;-73
2021/12/18 10:12:18;;;;;;;19.67;10.33;;;;;;;4.44;100.00;101076.50;5071240;28;20214;-75
2021/12/18 10:14:54;;;;;;;13.50;8.87;;;;;;;4.30;100.00;101077.44;5071764;28;20206;-73
2021/12/18 10:17:28;;;;;;;16.80;9.73;;;;;;;4.22;100.00;101070.09;5071274;28;20201;-75
2021/12/18 10:20:15;;;;;;;41.33;20.33;;;;;;;4.22;100.00;101063.28;5071436;28;20218;-74
2021/12/18 10:22:45;;;;;;;37.17;18.37;;;;;;;4.38;100.00;101058.22;5074765;28;20194;-74
2021/12/18 10:25:13;;;;;;;18.83;10.83;;;;;;;4.35;100.00;101057.16;5074700;28;20226;-75
2021/12/18 10:27:42;;;;;;;20.20;11.27;;;;;;;4.21;100.00;101058.94;5074435;28;20190;-77
2021/12/18 10:30:19;;;;;;;21.87;12.73;;;;;;;3.97;100.00;101057.56;5080351;28;20623;-77
2021/12/18 10:33:01;;;;;;;29.37;15.83;;;;;;;3.82;100.00;101052.44;5087271;28;20194;-76
2021/12/18 10:35:41;;;;;;;35.20;15.70;;;;;;;4.14;100.00;101049.13;5074664;28;20191;-76
2021/12/18 10:38:09;;;;;;;38.87;18.17;;;;;;;4.06;100.00;101047.84;5073981;28;20206;-78
2021/12/18 10:40:44;;;;;;;39.43;18.83;;;;;;;3.36;100.00;100924.97;5074582;28;20222;-75
2021/12/18 10:43:11;;;;;;;35.87;17.77;;;;;;;3.93;100.00;101046.25;5074170;28;20194;-77
2021/12/18 10:45:38;;;;;;;35.73;18.30;;;;;;;3.80;100.00;101024.94;5075110;28;20191;-77
2021/12/18 10:48:06;;;;;;;38.43;19.00;;;;;;;3.91;100.00;101046.97;5075193;28;20685;-75
2021/12/18 10:50:37;;;;;;;31.70;18.50;;;;;;;4.03;100.00;101042.53;5074406;28;20199;-76
2021/12/18 10:53:08;;;;;;;38.77;19.23;;;;;;;3.68;100.00;101044.75;5073985;28;20202;-75
2021/12/18 10:55:39;;;;;;;54.23;25.73;;;;;;;3.91;100.00;101034.13;5073811;28;20754;-78
2021/12/18 10:58:08;;;;;;;37.73;19.07;;;;;;;4.02;100.00;101030.50;5073431;28;20204;-77
2021/12/18 11:00:50;;;;;;;38.43;17.53;;;;;;;4.23;100.00;101028.22;5074084;28;20218;-77
2021/12/18 11:03:29;;;;;;;31.37;14.23;;;;;;;4.13;100.00;101028.53;5074079;28;20198;-77
2021/12/18 11:06:14;;;;;;;24.50;14.00;;;;;;;4.45;100.00;101033.75;5086517;28;20198;-75
2021/12/18 11:09:08;;;;;;;35.63;16.10;;;;;;;4.66;100.00;101044.28;5083510;28;20213;-74
2021/12/18 11:14:38;;;;;;;18.30;9.17;;;;;;;4.82;100.00;101047.75;5094366;28;20201;-76
2021/12/18 11:17:08;;;;;;;33.23;11.63;;;;;;;4.79;100.00;101046.69;5073924;28;20199;-76
2021/12/18 11:19:36;;;;;;;27.23;11.73;;;;;;;4.88;100.00;101057.50;5074459;28;20215;-75
2021/12/18 11:22:05;;;;;;;21.60;10.97;;;;;;;4.90;100.00;101045.59;5075346;28;20239;-76
2021/12/18 11:24:37;;;;;;;15.50;8.13;;;;;;;4.80;100.00;101021.09;5073479;28;20673;-75
2021/12/18 11:27:06;;;;;;;17.70;10.17;;;;;;;5.08;100.00;101041.41;5073345;28;20256;-76
2021/12/18 11:29:41;;;;;;;23.67;13.23;;;;;;;5.14;100.00;101040.84;5072647;28;20202;-75
2021/12/18 11:32:11;;;;;;;30.70;13.70;;;;;;;5.13;100.00;101027.13;5072595;28;20198;-75
2021/12/18 11:34:39;;;;;;;24.50;11.60;;;;;;;5.37;100.00;101030.94;5073837;28;20218;-80
2021/12/18 11:37:07;;;;;;;24.97;12.53;;;;;;;5.46;100.00;101025.38;5072929;28;20219;-77
2021/12/18 11:39:38;;;;;;;22.77;10.10;;;;;;;5.68;100.00;101029.91;5076968;28;20577;-77
2021/12/18 11:42:06;;;;;;;19.83;10.43;;;;;;;6.00;100.00;101027.22;5078129;28;20234;-75
2021/12/18 11:44:37;;;;;;;21.73;9.67;;;;;;;5.92;100.00;101037.16;5089792;28;20195;-75
2021/12/18 11:47:31;;;;;;;15.47;9.43;;;;;;;5.91;100.00;101040.56;5073123;28;20202;-75
2021/12/18 11:50:00;;;;;;;16.33;8.97;;;;;;;5.72;100.00;101045.56;5058399;28;20201;-76
2021/12/18 11:52:27;;;;;;;12.90;7.43;;;;;;;5.89;100.00;101059.28;5072644;28;20244;-77